sensor_id;sensor_type;location;lat;lon;timestamp;pressure;altitude;pressure_sealevel;temperature;humidity
62038;BME280;47991;42.974;12.082;2023-09-19T00:00:35;97784.59;;;19.13;66.51
62038;BME280;47991;42.974;12.082;2023-09-19T00:03:22;97779.75;;;19.04;66.35
62038;BME280;47991;42.974;12.082;2023-09-19T00:05:49;97780.88;;;19.07;65.97
62038;BME280;47991;42.974;12.082;2023-09-19T00:08:17;97777.71;;;19.05;65.86
62038;BME280;47991;42.974;12.082;2023-09-19T00:10:43;97777.19;;;19.02;66.73
62038;BME280;47991;42.974;12.082;2023-09-19T00:13:10;97779.92;;;18.96;67.59
62038;BME280;47991;42.974;12.082;2023-09-19T00:15:43;97782.16;;;18.98;67.39
62038;BME280;47991;42.974;12.082;2023-09-19T00:18:15;97777.24;;;19.04;67.18
62038;BME280;47991;42.974;12.082;2023-09-19T00:20:44;97780.23;;;19.11;66.81
62038;BME280;47991;42.974;12.082;2023-09-19T00:23:14;97778.96;;;19.20;66.68
62038;BME280;47991;42.974;12.082;2023-09-19T00:25:41;97774.75;;;19.30;66.36
62038;BME280;47991;42.974;12.082;2023-09-19T00:28:09;97768.25;;;19.39;66.23
62038;BME280;47991;42.974;12.082;2023-09-19T00:30:36;97761.92;;;19.37;66.68
62038;BME280;47991;42.974;12.082;2023-09-19T00:33:05;97758.52;;;19.40;66.54
62038;BME280;47991;42.974;12.082;2023-09-19T00:35:34;97763.94;;;19.45;66.23
62038;BME280;47991;42.974;12.082;2023-09-19T00:38:01;97764.27;;;19.48;66.11
62038;BME280;47991;42.974;12.082;2023-09-19T00:40:29;97762.00;;;19.50;65.93
62038;BME280;47991;42.974;12.082;2023-09-19T00:42:59;97758.36;;;19.51;65.83
62038;BME280;47991;42.974;12.082;2023-09-19T00:45:26;97748.94;;;19.52;65.89
62038;BME280;47991;42.974;12.082;2023-09-19T00:47:54;97749.44;;;19.56;65.56
62038;BME280;47991;42.974;12.082;2023-09-19T00:50:24;97741.88;;;19.59;65.38
62038;BME280;47991;42.974;12.082;2023-09-19T00:52:54;97734.08;;;19.62;65.30
62038;BME280;47991;42.974;12.082;2023-09-19T00:55:25;97736.08;;;19.66;65.60
62038;BME280;47991;42.974;12.082;2023-09-19T00:57:52;97734.44;;;19.63;65.74
62038;BME280;47991;42.974;12.082;2023-09-19T01:00:19;97735.85;;;19.60;65.89
62038;BME280;47991;42.974;12.082;2023-09-19T01:02:47;97731.67;;;19.64;65.59
62038;BME280;47991;42.974;12.082;2023-09-19T01:05:14;97730.66;;;19.74;65.11
62038;BME280;47991;42.974;12.082;2023-09-19T01:07:42;97734.75;;;19.81;65.04
62038;BME280;47991;42.974;12.082;2023-09-19T01:10:13;97739.77;;;19.86;64.75
62038;BME280;47991;42.974;12.082;2023-09-19T01:18:25;97735.04;;;19.97;64.59
62038;BME280;47991;42.974;12.082;2023-09-19T01:26:36;97736.80;;;20.01;64.49
62038;BME280;47991;42.974;12.082;2023-09-19T01:32:03;97744.85;;;19.77;66.42
62038;BME280;47991;42.974;12.082;2023-09-19T01:34:56;97745.20;;;19.66;65.64
62038;BME280;47991;42.974;12.082;2023-09-19T01:37:30;97750.33;;;19.72;65.34
62038;BME280;47991;42.974;12.082;2023-09-19T01:40:01;97755.78;;;19.74;65.20
62038;BME280;47991;42.974;12.082;2023-09-19T01:42:45;97759.73;;;19.74;65.31
62038;BME280;47991;42.974;12.082;2023-09-19T01:50:44;97761.91;;;19.65;66.46
62038;BME280;47991;42.974;12.082;2023-09-19T01:56:05;97772.67;;;19.65;66.58
62038;BME280;47991;42.974;12.082;2023-09-19T01:58:46;97777.18;;;19.67;66.49
62038;BME280;47991;42.974;12.082;2023-09-19T02:01:18;97771.60;;;19.71;66.61
62038;BME280;47991;42.974;12.082;2023-09-19T02:03:48;97769.45;;;19.73;66.76
62038;BME280;47991;42.974;12.082;2023-09-19T02:06:18;97773.50;;;19.75;66.51
62038;BME280;47991;42.974;12.082;2023-09-19T02:08:45;97767.79;;;19.69;66.85
62038;BME280;47991;42.974;12.082;2023-09-19T02:11:14;97756.73;;;19.68;67.03
62038;BME280;47991;42.974;12.082;2023-09-19T02:13:41;97752.60;;;19.70;66.86
62038;BME280;47991;42.974;12.082;2023-09-19T02:16:09;97756.48;;;19.74;66.96
62038;BME280;47991;42.974;12.082;2023-09-19T02:18:38;97754.94;;;19.73;67.20
62038;BME280;47991;42.974;12.082;2023-09-19T02:21:05;97757.40;;;19.71;66.93
62038;BME280;47991;42.974;12.082;2023-09-19T02:23:38;97755.45;;;19.68;67.41
62038;BME280;47991;42.974;12.082;2023-09-19T02:26:05;97754.44;;;19.67;67.19
62038;BME280;47991;42.974;12.082;2023-09-19T02:28:33;97752.23;;;19.65;67.10
62038;BME280;47991;42.974;12.082;2023-09-19T02:31:00;97750.97;;;19.59;67.27
62038;BME280;47991;42.974;12.082;2023-09-19T02:33:28;97751.78;;;19.55;67.83
62038;BME280;47991;42.974;12.082;2023-09-19T02:35:59;97756.23;;;19.53;67.95
62038;BME280;47991;42.974;12.082;2023-09-19T02:38:26;97758.52;;;19.51;68.54
62038;BME280;47991;42.974;12.082;2023-09-19T02:40:53;97757.08;;;19.49;69.37
62038;BME280;47991;42.974;12.082;2023-09-19T02:43:22;97761.19;;;19.49;69.42
62038;BME280;47991;42.974;12.082;2023-09-19T02:45:49;97765.84;;;19.49;69.56
62038;BME280;47991;42.974;12.082;2023-09-19T02:48:17;97760.82;;;19.49;70.00
62038;BME280;47991;42.974;12.082;2023-09-19T02:50:45;97756.38;;;19.48;70.17
62038;BME280;47991;42.974;12.082;2023-09-19T02:53:12;97751.33;;;19.49;71.08
62038;BME280;47991;42.974;12.082;2023-09-19T02:55:40;97753.39;;;19.50;71.45
62038;BME280;47991;42.974;12.082;2023-09-19T02:58:07;97753.61;;;19.55;72.19
62038;BME280;47991;42.974;12.082;2023-09-19T03:00:38;97751.55;;;19.59;72.76
62038;BME280;47991;42.974;12.082;2023-09-19T03:03:05;97751.44;;;19.60;72.76
62038;BME280;47991;42.974;12.082;2023-09-19T03:05:35;97750.35;;;19.63;72.93
62038;BME280;47991;42.974;12.082;2023-09-19T03:08:01;97750.17;;;19.63;73.23
62038;BME280;47991;42.974;12.082;2023-09-19T03:10:29;97754.66;;;19.64;73.67
62038;BME280;47991;42.974;12.082;2023-09-19T03:12:58;97752.17;;;19.63;73.99
62038;BME280;47991;42.974;12.082;2023-09-19T03:15:28;97748.89;;;19.64;74.41
62038;BME280;47991;42.974;12.082;2023-09-19T03:17:56;97749.17;;;19.66;74.49
62038;BME280;47991;42.974;12.082;2023-09-19T03:20:24;97738.17;;;19.66;74.86
62038;BME280;47991;42.974;12.082;2023-09-19T03:22:52;97729.39;;;19.66;75.18
62038;BME280;47991;42.974;12.082;2023-09-19T03:25:18;97722.50;;;19.67;75.60
62038;BME280;47991;42.974;12.082;2023-09-19T03:27:46;97711.70;;;19.68;75.52
62038;BME280;47991;42.974;12.082;2023-09-19T03:30:13;97704.85;;;19.68;75.99
62038;BME280;47991;42.974;12.082;2023-09-19T03:32:44;97708.88;;;19.67;76.39
62038;BME280;47991;42.974;12.082;2023-09-19T03:35:13;97706.22;;;19.67;76.94
62038;BME280;47991;42.974;12.082;2023-09-19T03:37:43;97707.67;;;19.69;77.39
62038;BME280;47991;42.974;12.082;2023-09-19T03:40:11;97706.81;;;19.71;78.42
62038;BME280;47991;42.974;12.082;2023-09-19T03:42:39;97707.13;;;19.75;78.01
62038;BME280;47991;42.974;12.082;2023-09-19T03:45:09;97702.98;;;19.78;78.21
62038;BME280;47991;42.974;12.082;2023-09-19T03:47:39;97695.74;;;19.85;79.06
62038;BME280;47991;42.974;12.082;2023-09-19T03:50:07;97694.16;;;19.92;79.10
62038;BME280;47991;42.974;12.082;2023-09-19T03:52:34;97695.15;;;19.93;79.05
62038;BME280;47991;42.974;12.082;2023-09-19T03:55:01;97697.70;;;19.92;79.02
62038;BME280;47991;42.974;12.082;2023-09-19T03:57:31;97701.29;;;19.87;79.03
62038;BME280;47991;42.974;12.082;2023-09-19T03:59:58;97701.89;;;19.84;78.70
62038;BME280;47991;42.974;12.082;2023-09-19T04:02:25;97698.21;;;19.83;78.77
62038;BME280;47991;42.974;12.082;2023-09-19T04:04:52;97696.47;;;19.81;78.62
62038;BME280;47991;42.974;12.082;2023-09-19T04:07:19;97698.45;;;19.81;79.12
62038;BME280;47991;42.974;12.082;2023-09-19T04:09:49;97699.62;;;19.83;78.77
62038;BME280;47991;42.974;12.082;2023-09-19T04:12:16;97701.80;;;19.85;79.25
62038;BME280;47991;42.974;12.082;2023-09-19T04:14:45;97695.58;;;19.89;79.45
62038;BME280;47991;42.974;12.082;2023-09-19T04:17:12;97697.96;;;19.91;79.59
62038;BME280;47991;42.974;12.082;2023-09-19T04:19:39;97699.39;;;19.94;79.54
62038;BME280;47991;42.974;12.082;2023-09-19T04:22:07;97701.21;;;19.96;79.46
62038;BME280;47991;42.974;12.082;2023-09-19T04:24:34;97701.84;;;19.98;80.12
62038;BME280;47991;42.974;12.082;2023-09-19T04:27:01;97699.34;;;20.00;80.79
62038;BME280;47991;42.974;12.082;2023-09-19T04:29:28;97697.57;;;20.03;80.65
62038;BME280;47991;42.974;12.082;2023-09-19T04:31:56;97699.33;;;20.03;81.54
62038;BME280;47991;42.974;12.082;2023-09-19T04:34:26;97698.73;;;20.04;83.33
62038;BME280;47991;42.974;12.082;2023-09-19T04:36:54;97701.41;;;20.02;81.85
62038;BME280;47991;42.974;12.082;2023-09-19T04:39:20;97701.09;;;20.01;82.19
62038;BME280;47991;42.974;12.082;2023-09-19T04:41:47;97699.68;;;20.03;81.63
62038;BME280;47991;42.974;12.082;2023-09-19T04:44:14;97695.89;;;20.04;81.87
62038;BME280;47991;42.974;12.082;2023-09-19T04:46:42;97696.54;;;20.05;82.39
62038;BME280;47991;42.974;12.082;2023-09-19T04:49:09;97696.30;;;20.06;82.08
62038;BME280;47991;42.974;12.082;2023-09-19T04:51:36;97696.90;;;20.07;82.46
62038;BME280;47991;42.974;12.082;2023-09-19T04:54:02;97700.48;;;20.07;82.93
62038;BME280;47991;42.974;12.082;2023-09-19T04:56:29;97700.13;;;20.07;82.85
62038;BME280;47991;42.974;12.082;2023-09-19T04:58:57;97706.31;;;20.09;83.08
62038;BME280;47991;42.974;12.082;2023-09-19T05:01:25;97708.86;;;20.08;83.00
62038;BME280;47991;42.974;12.082;2023-09-19T05:03:52;97717.80;;;20.06;82.05
62038;BME280;47991;42.974;12.082;2023-09-19T05:06:20;97720.29;;;19.93;82.38
62038;BME280;47991;42.974;12.082;2023-09-19T05:08:50;97725.40;;;19.92;83.29
62038;BME280;47991;42.974;12.082;2023-09-19T05:11:19;97729.19;;;19.83;82.76
62038;BME280;47991;42.974;12.082;2023-09-19T05:13:49;97720.52;;;19.51;82.87
62038;BME280;47991;42.974;12.082;2023-09-19T05:16:19;97728.26;;;19.56;84.27
62038;BME280;47991;42.974;12.082;2023-09-19T05:18:47;97736.52;;;19.44;83.91
62038;BME280;47991;42.974;12.082;2023-09-19T05:21:13;97738.02;;;19.24;83.72
62038;BME280;47991;42.974;12.082;2023-09-19T05:23:40;97736.66;;;19.29;84.36
62038;BME280;47991;42.974;12.082;2023-09-19T05:26:07;97738.66;;;19.33;84.14
62038;BME280;47991;42.974;12.082;2023-09-19T05:28:34;97741.95;;;19.41;85.02
62038;BME280;47991;42.974;12.082;2023-09-19T05:31:01;97745.85;;;19.47;84.14
62038;BME280;47991;42.974;12.082;2023-09-19T05:33:31;97749.78;;;19.50;84.20
62038;BME280;47991;42.974;12.082;2023-09-19T05:35:58;97751.73;;;19.61;83.84
62038;BME280;47991;42.974;12.082;2023-09-19T05:38:25;97756.81;;;19.75;84.00
62038;BME280;47991;42.974;12.082;2023-09-19T05:40:53;97756.85;;;19.86;83.93
62038;BME280;47991;42.974;12.082;2023-09-19T05:43:20;97756.84;;;19.96;83.54
62038;BME280;47991;42.974;12.082;2023-09-19T05:45:47;97758.45;;;20.10;83.02
62038;BME280;47991;42.974;12.082;2023-09-19T05:48:15;97758.30;;;20.18;82.49
62038;BME280;47991;42.974;12.082;2023-09-19T05:50:43;97753.70;;;20.25;81.89
62038;BME280;47991;42.974;12.082;2023-09-19T05:53:11;97758.98;;;20.29;82.25
62038;BME280;47991;42.974;12.082;2023-09-19T05:55:41;97760.17;;;20.32;81.87
62038;BME280;47991;42.974;12.082;2023-09-19T05:58:08;97757.48;;;20.43;81.32
62038;BME280;47991;42.974;12.082;2023-09-19T06:00:36;97754.73;;;20.49;81.22
62038;BME280;47991;42.974;12.082;2023-09-19T06:03:03;97756.47;;;20.44;80.96
62038;BME280;47991;42.974;12.082;2023-09-19T06:05:30;97758.30;;;20.47;80.75
62038;BME280;47991;42.974;12.082;2023-09-19T06:07:58;97763.78;;;20.50;80.76
62038;BME280;47991;42.974;12.082;2023-09-19T06:10:27;97763.52;;;20.33;81.67
62038;BME280;47991;42.974;12.082;2023-09-19T06:12:54;97771.33;;;20.19;81.79
62038;BME280;47991;42.974;12.082;2023-09-19T06:15:24;97775.83;;;20.13;81.94
62038;BME280;47991;42.974;12.082;2023-09-19T06:17:54;97776.81;;;20.17;81.67
62038;BME280;47991;42.974;12.082;2023-09-19T06:20:25;97776.78;;;20.28;81.44
62038;BME280;47991;42.974;12.082;2023-09-19T06:22:53;97775.48;;;20.37;81.28
62038;BME280;47991;42.974;12.082;2023-09-19T06:25:21;97777.57;;;20.43;80.91
62038;BME280;47991;42.974;12.082;2023-09-19T06:27:49;97779.88;;;20.46;81.43
62038;BME280;47991;42.974;12.082;2023-09-19T06:30:19;97789.40;;;20.38;81.46
62038;BME280;47991;42.974;12.082;2023-09-19T06:32:46;97791.27;;;20.34;81.48
62038;BME280;47991;42.974;12.082;2023-09-19T06:35:15;97792.63;;;20.17;80.94
62038;BME280;47991;42.974;12.082;2023-09-19T06:37:43;97788.77;;;20.13;81.30
62038;BME280;47991;42.974;12.082;2023-09-19T06:40:11;97791.20;;;20.19;81.10
62038;BME280;47991;42.974;12.082;2023-09-19T06:42:47;97787.20;;;20.36;80.75
62038;BME280;47991;42.974;12.082;2023-09-19T06:45:16;97786.89;;;20.56;80.17
62038;BME280;47991;42.974;12.082;2023-09-19T06:47:46;97787.17;;;20.68;79.76
62038;BME280;47991;42.974;12.082;2023-09-19T06:50:17;97790.86;;;20.78;79.97
62038;BME280;47991;42.974;12.082;2023-09-19T06:52:46;97790.82;;;20.91;79.50
62038;BME280;47991;42.974;12.082;2023-09-19T06:55:17;97794.05;;;21.02;79.66
62038;BME280;47991;42.974;12.082;2023-09-19T06:57:49;97790.38;;;21.08;79.21
62038;BME280;47991;42.974;12.082;2023-09-19T07:00:17;97793.21;;;21.21;78.66
62038;BME280;47991;42.974;12.082;2023-09-19T07:02:59;97792.40;;;21.27;78.62
62038;BME280;47991;42.974;12.082;2023-09-19T07:05:28;97801.08;;;21.32;78.64
62038;BME280;47991;42.974;12.082;2023-09-19T07:07:55;97807.85;;;21.38;78.38
62038;BME280;47991;42.974;12.082;2023-09-19T07:10:22;97810.05;;;21.45;78.20
62038;BME280;47991;42.974;12.082;2023-09-19T07:12:58;97810.48;;;21.52;77.86
62038;BME280;47991;42.974;12.082;2023-09-19T07:15:26;97809.71;;;21.55;77.88
62038;BME280;47991;42.974;12.082;2023-09-19T07:17:54;97808.96;;;21.60;78.33
62038;BME280;47991;42.974;12.082;2023-09-19T07:20:24;97809.15;;;21.67;78.23
62038;BME280;47991;42.974;12.082;2023-09-19T07:22:53;97808.02;;;21.73;77.93
62038;BME280;47991;42.974;12.082;2023-09-19T07:25:24;97805.11;;;21.76;78.20
62038;BME280;47991;42.974;12.082;2023-09-19T07:27:51;97804.95;;;21.83;78.06
62038;BME280;47991;42.974;12.082;2023-09-19T07:30:18;97809.30;;;21.82;78.74
62038;BME280;47991;42.974;12.082;2023-09-19T07:32:45;97809.02;;;21.84;79.16
62038;BME280;47991;42.974;12.082;2023-09-19T07:35:11;97810.20;;;21.88;79.26
62038;BME280;47991;42.974;12.082;2023-09-19T07:37:38;97804.39;;;21.93;79.06
62038;BME280;47991;42.974;12.082;2023-09-19T07:40:06;97802.48;;;22.02;78.92
62038;BME280;47991;42.974;12.082;2023-09-19T07:42:36;97804.66;;;22.12;78.47
62038;BME280;47991;42.974;12.082;2023-09-19T07:45:06;97812.52;;;22.17;79.15
62038;BME280;47991;42.974;12.082;2023-09-19T07:47:34;97815.84;;;22.26;78.81
62038;BME280;47991;42.974;12.082;2023-09-19T07:50:03;97816.34;;;22.34;78.97
62038;BME280;47991;42.974;12.082;2023-09-19T07:52:30;97820.07;;;22.47;78.44
62038;BME280;47991;42.974;12.082;2023-09-19T07:55:00;97820.88;;;22.55;78.76
62038;BME280;47991;42.974;12.082;2023-09-19T07:57:28;97821.22;;;22.62;78.66
62038;BME280;47991;42.974;12.082;2023-09-19T07:59:55;97819.90;;;22.68;78.44
62038;BME280;47991;42.974;12.082;2023-09-19T08:02:22;97821.18;;;22.76;78.29
62038;BME280;47991;42.974;12.082;2023-09-19T08:04:49;97824.79;;;22.91;77.69
62038;BME280;47991;42.974;12.082;2023-09-19T08:07:18;97825.65;;;23.01;77.32
62038;BME280;47991;42.974;12.082;2023-09-19T08:09:45;97823.70;;;22.98;76.76
62038;BME280;47991;42.974;12.082;2023-09-19T08:12:15;97820.58;;;23.06;76.94
62038;BME280;47991;42.974;12.082;2023-09-19T08:14:43;97827.58;;;23.16;76.59
62038;BME280;47991;42.974;12.082;2023-09-19T08:17:10;97829.91;;;23.16;76.51
62038;BME280;47991;42.974;12.082;2023-09-19T08:19:37;97831.46;;;23.30;76.40
62038;BME280;47991;42.974;12.082;2023-09-19T08:22:07;97830.20;;;23.46;75.56
62038;BME280;47991;42.974;12.082;2023-09-19T08:24:37;97831.84;;;23.60;75.41
62038;BME280;47991;42.974;12.082;2023-09-19T08:27:04;97836.52;;;23.69;75.08
62038;BME280;47991;42.974;12.082;2023-09-19T08:29:32;97834.92;;;23.75;74.62
62038;BME280;47991;42.974;12.082;2023-09-19T08:31:59;97837.40;;;23.76;74.46
62038;BME280;47991;42.974;12.082;2023-09-19T08:34:26;97837.02;;;23.69;74.63
62038;BME280;47991;42.974;12.082;2023-09-19T08:36:54;97836.45;;;23.74;74.59
62038;BME280;47991;42.974;12.082;2023-09-19T08:39:25;97838.19;;;23.75;74.45
62038;BME280;47991;42.974;12.082;2023-09-19T08:42:01;97842.14;;;23.84;74.46
62038;BME280;47991;42.974;12.082;2023-09-19T08:44:29;97841.23;;;23.73;74.49
62038;BME280;47991;42.974;12.082;2023-09-19T08:47:14;97845.33;;;23.78;74.69
62038;BME280;47991;42.974;12.082;2023-09-19T08:49:53;97852.47;;;23.93;74.33
62038;BME280;47991;42.974;12.082;2023-09-19T08:52:47;97848.08;;;24.07;73.48
62038;BME280;47991;42.974;12.082;2023-09-19T08:55:23;97848.52;;;24.08;73.34
62038;BME280;47991;42.974;12.082;2023-09-19T08:57:52;97844.86;;;24.26;72.96
62038;BME280;47991;42.974;12.082;2023-09-19T09:00:27;97844.35;;;24.41;72.23
62038;BME280;47991;42.974;12.082;2023-09-19T09:02:55;97844.30;;;24.42;72.23
62038;BME280;47991;42.974;12.082;2023-09-19T09:05:24;97843.02;;;24.46;71.73
62038;BME280;47991;42.974;12.082;2023-09-19T09:07:52;97847.16;;;24.25;72.15
62038;BME280;47991;42.974;12.082;2023-09-19T09:10:19;97847.52;;;24.46;72.13
62038;BME280;47991;42.974;12.082;2023-09-19T09:12:52;97844.75;;;24.56;71.13
62038;BME280;47991;42.974;12.082;2023-09-19T09:15:22;97846.77;;;24.60;71.72
62038;BME280;47991;42.974;12.082;2023-09-19T09:17:51;97845.21;;;24.83;71.10
62038;BME280;47991;42.974;12.082;2023-09-19T09:20:19;97840.75;;;24.92;70.45
62038;BME280;47991;42.974;12.082;2023-09-19T09:22:54;97840.23;;;25.09;69.72
62038;BME280;47991;42.974;12.082;2023-09-19T09:25:22;97843.23;;;25.29;69.64
62038;BME280;47991;42.974;12.082;2023-09-19T09:28:02;97839.02;;;25.40;68.80
62038;BME280;47991;42.974;12.082;2023-09-19T09:30:33;97840.89;;;25.47;68.63
62038;BME280;47991;42.974;12.082;2023-09-19T09:33:13;97836.38;;;25.64;67.98
62038;BME280;47991;42.974;12.082;2023-09-19T09:35:51;97835.13;;;25.82;67.38
62038;BME280;47991;42.974;12.082;2023-09-19T09:38:20;97828.61;;;25.88;66.25
62038;BME280;47991;42.974;12.082;2023-09-19T09:40:49;97827.81;;;25.99;65.67
62038;BME280;47991;42.974;12.082;2023-09-19T09:49:02;97816.72;;;26.32;64.82
62038;BME280;47991;42.974;12.082;2023-09-19T09:51:49;97817.10;;;26.45;64.08
62038;BME280;47991;42.974;12.082;2023-09-19T09:54:28;97813.38;;;26.52;63.56
62038;BME280;47991;42.974;12.082;2023-09-19T09:57:10;97808.20;;;26.57;62.98
62038;BME280;47991;42.974;12.082;2023-09-19T09:59:51;97803.63;;;26.89;62.75
62038;BME280;47991;42.974;12.082;2023-09-19T10:02:20;97799.70;;;27.05;61.82
62038;BME280;47991;42.974;12.082;2023-09-19T10:04:52;97801.28;;;27.02;61.22
62038;BME280;47991;42.974;12.082;2023-09-19T10:07:30;97798.53;;;27.00;59.80
62038;BME280;47991;42.974;12.082;2023-09-19T10:10:30;97796.02;;;26.96;59.53
62038;BME280;47991;42.974;12.082;2023-09-19T10:13:12;97793.77;;;26.99;59.83
62038;BME280;47991;42.974;12.082;2023-09-19T10:15:44;97792.80;;;27.03;59.12
62038;BME280;47991;42.974;12.082;2023-09-19T10:18:23;97794.12;;;27.03;59.56
62038;BME280;47991;42.974;12.082;2023-09-19T10:20:51;97791.81;;;26.69;59.48
62038;BME280;47991;42.974;12.082;2023-09-19T10:23:20;97790.67;;;26.76;59.77
62038;BME280;47991;42.974;12.082;2023-09-19T10:25:50;97791.65;;;26.66;58.83
62038;BME280;47991;42.974;12.082;2023-09-19T10:28:20;97789.84;;;26.73;59.50
62038;BME280;47991;42.974;12.082;2023-09-19T10:30:50;97787.95;;;26.82;58.34
62038;BME280;47991;42.974;12.082;2023-09-19T10:33:25;97786.45;;;26.79;58.98
62038;BME280;47991;42.974;12.082;2023-09-19T10:35:59;97786.25;;;26.84;59.09
62038;BME280;47991;42.974;12.082;2023-09-19T10:38:27;97780.31;;;26.88;58.54
62038;BME280;47991;42.974;12.082;2023-09-19T10:40:57;97778.64;;;26.78;58.25
62038;BME280;47991;42.974;12.082;2023-09-19T10:43:30;97781.10;;;26.56;57.65
62038;BME280;47991;42.974;12.082;2023-09-19T10:46:07;97777.29;;;26.23;57.13
62038;BME280;47991;42.974;12.082;2023-09-19T10:48:37;97774.48;;;26.00;54.14
62038;BME280;47991;42.974;12.082;2023-09-19T10:51:25;97777.47;;;26.17;56.21
62038;BME280;47991;42.974;12.082;2023-09-19T10:54:11;97778.69;;;26.53;55.73
62038;BME280;47991;42.974;12.082;2023-09-19T10:56:46;97773.95;;;26.82;55.06
62038;BME280;47991;42.974;12.082;2023-09-19T10:59:16;97773.43;;;27.03;54.56
62038;BME280;47991;42.974;12.082;2023-09-19T11:04:33;97773.20;;;26.90;53.62
62038;BME280;47991;42.974;12.082;2023-09-19T11:07:07;97773.70;;;27.09;53.83
62038;BME280;47991;42.974;12.082;2023-09-19T11:09:45;97771.32;;;27.29;53.86
62038;BME280;47991;42.974;12.082;2023-09-19T11:15:08;97767.50;;;27.33;52.57
62038;BME280;47991;42.974;12.082;2023-09-19T11:17:42;97760.90;;;27.45;50.07
62038;BME280;47991;42.974;12.082;2023-09-19T11:30:41;97763.05;;;27.77;52.25
62038;BME280;47991;42.974;12.082;2023-09-19T11:33:32;97766.95;;;27.83;51.37
62038;BME280;47991;42.974;12.082;2023-09-19T11:46:27;97752.84;;;28.57;49.34
62038;BME280;47991;42.974;12.082;2023-09-19T11:49:06;97753.64;;;28.51;48.29
62038;BME280;47991;42.974;12.082;2023-09-19T11:51:40;97750.96;;;28.34;49.17
62038;BME280;47991;42.974;12.082;2023-09-19T11:54:11;97751.87;;;28.28;48.85
62038;BME280;47991;42.974;12.082;2023-09-19T11:56:46;97751.02;;;28.26;49.23
62038;BME280;47991;42.974;12.082;2023-09-19T11:59:27;97750.86;;;28.33;47.47
62038;BME280;47991;42.974;12.082;2023-09-19T12:02:05;97745.05;;;28.44;48.50
62038;BME280;47991;42.974;12.082;2023-09-19T12:04:34;97742.30;;;28.44;48.64
62038;BME280;47991;42.974;12.082;2023-09-19T12:07:07;97737.09;;;28.45;48.62
62038;BME280;47991;42.974;12.082;2023-09-19T12:09:41;97735.38;;;28.41;48.43
62038;BME280;47991;42.974;12.082;2023-09-19T12:12:22;97733.14;;;28.50;47.04
62038;BME280;47991;42.974;12.082;2023-09-19T12:14:50;97731.98;;;28.63;44.91
62038;BME280;47991;42.974;12.082;2023-09-19T12:17:17;97727.74;;;28.71;41.31
62038;BME280;47991;42.974;12.082;2023-09-19T12:19:56;97730.32;;;28.92;43.46
62038;BME280;47991;42.974;12.082;2023-09-19T12:22:23;97724.48;;;28.83;40.95
62038;BME280;47991;42.974;12.082;2023-09-19T12:24:52;97721.05;;;28.95;42.59
62038;BME280;47991;42.974;12.082;2023-09-19T12:27:21;97721.05;;;29.28;43.13
62038;BME280;47991;42.974;12.082;2023-09-19T12:29:49;97718.38;;;29.43;43.29
62038;BME280;47991;42.974;12.082;2023-09-19T12:32:17;97717.37;;;29.58;43.91
62038;BME280;47991;42.974;12.082;2023-09-19T12:34:53;97717.79;;;29.64;43.18
62038;BME280;47991;42.974;12.082;2023-09-19T12:37:21;97719.15;;;29.61;43.32
62038;BME280;47991;42.974;12.082;2023-09-19T12:40:07;97714.59;;;29.77;43.72
62038;BME280;47991;42.974;12.082;2023-09-19T12:42:49;97713.94;;;29.93;43.34
62038;BME280;47991;42.974;12.082;2023-09-19T12:45:17;97713.94;;;30.12;44.24
62038;BME280;47991;42.974;12.082;2023-09-19T12:48:22;97714.61;;;30.00;43.93
62038;BME280;47991;42.974;12.082;2023-09-19T12:53:42;97709.67;;;29.75;44.22
62038;BME280;47991;42.974;12.082;2023-09-19T12:56:15;97710.62;;;29.89;43.78
62038;BME280;47991;42.974;12.082;2023-09-19T12:58:52;97708.94;;;30.04;44.09
62038;BME280;47991;42.974;12.082;2023-09-19T13:01:22;97702.86;;;30.03;43.49
62038;BME280;47991;42.974;12.082;2023-09-19T13:04:16;97702.30;;;29.90;43.29
62038;BME280;47991;42.974;12.082;2023-09-19T13:06:47;97690.87;;;30.16;43.62
62038;BME280;47991;42.974;12.082;2023-09-19T13:09:16;97689.88;;;30.27;41.89
62038;BME280;47991;42.974;12.082;2023-09-19T13:11:44;97688.63;;;30.20;41.24
62038;BME280;47991;42.974;12.082;2023-09-19T13:17:00;97691.16;;;29.18;42.38
62038;BME280;47991;42.974;12.082;2023-09-19T13:19:42;97685.95;;;29.42;42.63
62038;BME280;47991;42.974;12.082;2023-09-19T13:25:17;97674.52;;;30.58;41.60
62038;BME280;47991;42.974;12.082;2023-09-19T13:27:55;97676.14;;;30.96;40.82
62038;BME280;47991;42.974;12.082;2023-09-19T13:30:24;97674.50;;;30.99;39.54
62038;BME280;47991;42.974;12.082;2023-09-19T13:33:05;97675.04;;;31.25;39.58
62038;BME280;47991;42.974;12.082;2023-09-19T13:35:33;97677.14;;;31.46;39.56
62038;BME280;47991;42.974;12.082;2023-09-19T13:38:00;97675.55;;;31.63;39.97
62038;BME280;47991;42.974;12.082;2023-09-19T13:40:27;97676.84;;;31.46;38.97
62038;BME280;47991;42.974;12.082;2023-09-19T13:43:01;97672.38;;;31.59;39.23
62038;BME280;47991;42.974;12.082;2023-09-19T13:45:28;97672.73;;;31.81;39.84
62038;BME280;47991;42.974;12.082;2023-09-19T13:47:57;97671.34;;;31.81;36.91
62038;BME280;47991;42.974;12.082;2023-09-19T13:50:25;97669.48;;;31.92;38.61
62038;BME280;47991;42.974;12.082;2023-09-19T13:52:53;97665.14;;;32.18;38.97
62038;BME280;47991;42.974;12.082;2023-09-19T13:55:20;97658.04;;;32.32;37.79
62038;BME280;47991;42.974;12.082;2023-09-19T13:57:47;97660.66;;;32.34;37.77
62038;BME280;47991;42.974;12.082;2023-09-19T14:00:22;97659.04;;;32.40;37.08
62038;BME280;47991;42.974;12.082;2023-09-19T14:02:49;97656.92;;;32.51;37.57
62038;BME280;47991;42.974;12.082;2023-09-19T14:05:17;97651.98;;;32.41;36.73
62038;BME280;47991;42.974;12.082;2023-09-19T14:07:45;97654.11;;;31.89;35.79
62038;BME280;47991;42.974;12.082;2023-09-19T14:10:12;97657.77;;;31.64;37.09